Flight Track Log - Related Links

Times and Time Zones

All times are in EDT time to prevent confusion due to time zone crossing. See the EGF3726 flight status page for this flight to view local times or setup timezone preferences in your user account.

Time Position Orientation Groundspeed Altitude Reporting Facility
EDT Latitude Longitude Course Direction KTS MPH feet Rate Location/Type
Fri 01:46:20 PM 40.5811 -89.7722 220° Southwest 182 209 4,900  Level Chicago Center
Fri 01:47:00 PM 40.4602 -89.9167 180° South  Level FlightAware Approximate
Fri 01:47:22 PM 40.5356 -89.8267 222° Southwest 207 238 6,800  Level Chicago Center
Fri 01:48:00 PM 40.3947 -89.9887 217° Southwest  Level FlightAware Approximate
Fri 01:48:25 PM 40.4867 -89.8842 222° Southwest 223 257 9,000  Level Chicago Center
Fri 01:49:00 PM 40.3270 -90.0630 224° Southwest  Level FlightAware Approximate
Fri 01:49:27 PM 40.4339 -89.9469 222° Southwest 242 278 10,500  Level Chicago Center
Fri 01:50:00 PM 40.5871 -89.7731 201° Southwest  Level FlightAware Approximate
Fri 01:50:27 PM 40.3722 -90.0189 222° Southwest 284 327 11,900  Level Kansas City Center
Fri 01:51:28 PM 40.3103 -90.0922 222° Southwest 294 338 13,900 2,095 Climbing Kansas City Center
Fri 01:52:33 PM 40.2367 -90.1781 222° Southwest 295 339 16,300 2,079 Climbing Chicago Center
Fri 01:53:35 PM 40.1772 -90.2467 221° Southwest 291 335 18,300 1,790 Climbing Chicago Center
Fri 01:54:37 PM 40.1189 -90.3139 221° Southwest 286 329 20,000 1,561 Climbing Kansas City Center
Fri 01:55:38 PM 40.0592 -90.3822 221° Southwest 285 328 21,500 1,426 Climbing Kansas City Center
Fri 01:56:39 PM 39.9975 -90.4536 222° Southwest 292 336 22,900 1,392 Climbing Kansas City Center
Fri 01:57:43 PM 39.9350 -90.5239 221° Southwest 293 337 24,400 1,306 Climbing Kansas City Center
Fri 01:58:43 PM 39.8722 -90.5967 222° Southwest 296 341 25,600 774 Climbing Kansas City Center
Fri 01:59:47 PM 39.7933 -90.6881 222° Southwest 312 359 26,000 194 Climbing Kansas City Center
Fri 02:00:47 PM 39.7250 -90.7642 221° Southwest 340 391 26,000 244 Level Kansas City Center
Fri 02:01:50 PM 39.6481 -90.8517 221° Southwest 361 415 26,500 1,008 Climbing Kansas City Center
Fri 02:02:52 PM 39.5586 -90.9544 222° Southwest 363 418 28,100 1,392 Climbing Kansas City Center
Fri 02:03:55 PM 39.4875 -91.0336 221° Southwest 350 403 29,400 1,258 Climbing Kansas City Center
Fri 02:04:56 PM 39.4194 -91.1100 221° Southwest 339 390 30,700 1,210 Climbing Kansas City Center
Fri 02:05:59 PM 39.3517 -91.1844 220° Southwest 331 381 31,900 1,161 Climbing Kansas City Center
Fri 02:07:00 PM 39.2844 -91.2611 221° Southwest 329 379 33,100 1,200 Climbing Kansas City Center
Fri 02:08:04 PM 39.2067 -91.3472 221° Southwest 317 365 34,400 1,065 Climbing Kansas City Center
Fri 02:09:04 PM 39.1406 -91.4219 221° Southwest 317 365 35,300 780 Climbing Kansas City Center
Fri 02:10:07 PM 39.0744 -91.4931 220° Southwest 315 362 36,000 339 Climbing Kansas City Center
Fri 02:11:08 PM 39.0078 -91.5694 222° Southwest 317 365 36,000  Level Kansas City Center
Fri 02:12:12 PM 38.9347 -91.6494 220° Southwest 338 389 36,000  Level Kansas City Center
Fri 02:13:13 PM 38.8497 -91.7436 221° Southwest 350 403 36,000  Level Kansas City Center
Fri 02:14:16 PM 38.7717 -91.8278 220° Southwest 363 418 36,000  Level Kansas City Center
Fri 02:15:17 PM 38.6947 -91.9125 221° Southwest 363 418 36,000  Level Kansas City Center
Fri 02:16:18 PM 38.6169 -91.9964 220° Southwest 363 418 36,000  Level Kansas City Center
Fri 02:17:22 PM 38.5236 -92.0967 220° Southwest 363 418 36,000  Level Kansas City Center
Fri 02:18:24 PM 38.4478 -92.1794 221° Southwest 362 417 36,000  Level Kansas City Center
Fri 02:19:25 PM 38.3725 -92.2603 220° Southwest 361 415 36,000  Level Kansas City Center
Fri 02:20:28 PM 38.2972 -92.3419 220° Southwest 359 413 36,000  Level Kansas City Center
Fri 02:21:29 PM 38.2219 -92.4219 220° Southwest 358 412 36,000  Level Kansas City Center
Fri 02:22:33 PM 38.1456 -92.5042 220° Southwest 352 405 36,000  Level Kansas City Center
Fri 02:23:33 PM 38.0700 -92.5856 220° Southwest 352 405 36,000  Level Kansas City Center
Fri 02:24:37 PM 37.9942 -92.6664 220° Southwest 353 406 36,000  Level Kansas City Center
Fri 02:25:38 PM 37.9083 -92.7567 220° Southwest 353 406 36,000  Level Kansas City Center
Fri 02:26:39 PM 37.8319 -92.8364 220° Southwest 354 407 36,000  Level Kansas City Center
Fri 02:27:43 PM 37.7567 -92.9164 220° Southwest 354 407 36,000  Level Kansas City Center
Fri 02:28:43 PM 37.6661 -93.0122 220° Southwest 354 407 36,000  Level Kansas City Center
Fri 02:29:45 PM 37.5892 -93.0886 218° Southwest 354 407 36,000  Level Kansas City Center
Fri 02:30:48 PM 37.5158 -93.1703 221° Southwest 353 406 36,000  Level Kansas City Center
Fri 02:31:51 PM 37.4389 -93.2481 219° Southwest 353 406 36,000  Level Kansas City Center
Fri 02:32:52 PM 37.3625 -93.3250 219° Southwest 353 406 36,000  Level Kansas City Center
Fri 02:33:56 PM 37.2783 -93.3906 212° Southwest 355 409 36,000  Level Kansas City Center
Fri 02:34:57 PM 37.1742 -93.4664 210° Southwest 358 412 36,000  Level Kansas City Center
Fri 02:35:57 PM 37.0869 -93.5289 210° Southwest 358 412 36,000  Level Kansas City Center
Fri 02:37:02 PM 36.9992 -93.5911 210° Southwest 359 413 36,000  Level Kansas City Center
Fri 02:39:06 PM 36.8233 -93.7150 209° Southwest 360 414 36,000  Level Memphis Center
Fri 02:40:08 PM 36.7194 -93.7892 210° Southwest 362 417 36,000  Level Memphis Center
Fri 02:41:10 PM 36.6308 -93.8531 210° Southwest 363 418 36,000  Level Memphis Center
Fri 02:42:12 PM 36.5411 -93.9147 209° Southwest 363 418 36,000  Level Memphis Center
Fri 02:43:14 PM 36.4433 -93.9636 202° Southwest 370 426 36,000  Level Memphis Center
Fri 02:44:17 PM 36.3442 -94.0131 202° Southwest 377 434 36,000  Level Kansas City Center
Fri 02:45:18 PM 36.2558 -94.0583 202° Southwest 377 434 36,000  Level Kansas City Center
Fri 02:46:21 PM 36.1492 -94.1128 202° Southwest 377 434 36,000  Level Memphis Center
Fri 02:47:23 PM 36.0314 -94.1717 202° Southwest 377 434 36,000  Level Memphis Center
Fri 02:48:25 PM 35.9342 -94.2211 202° Southwest 377 434 36,000  Level Memphis Center
Fri 02:49:27 PM 35.8358 -94.2703 202° Southwest 378 435 36,000  Level Memphis Center
Fri 02:50:29 PM 35.7383 -94.3194 202° Southwest 378 435 36,000  Level Memphis Center
Fri 02:51:31 PM 35.6419 -94.3669 202° Southwest 377 434 36,000  Level Memphis Center
Fri 02:52:33 PM 35.5453 -94.4144 202° Southwest 376 433 36,000  Level Memphis Center
Fri 02:53:35 PM 35.4492 -94.4633 203° Southwest 376 433 36,000  Level Memphis Center
Fri 02:54:38 PM 35.3500 -94.5117 202° Southwest 370 426 36,000  Level Memphis Center
Fri 02:55:40 PM 35.2367 -94.5683 202° Southwest 368 423 36,000  Level Memphis Center
Fri 02:56:42 PM 35.1428 -94.6153 202° Southwest 368 423 36,000  Level Memphis Center
Fri 02:57:44 PM 35.0503 -94.6597 201° Southwest 368 423 36,000  Level Memphis Center
Fri 02:58:46 PM 34.9681 -94.7256 213° Southwest 354 407 36,000  Level Memphis Center
Fri 02:59:48 PM 34.8997 -94.8017 222° Southwest 339 390 36,000  Level Memphis Center
Fri 03:00:53 PM 34.8172 -94.8903 221° Southwest 335 386 36,000 -614 Level Fort Worth Center
Fri 03:01:55 PM 34.7472 -94.9650 221° Southwest 335 386 34,700 -1,536 Descending Fort Worth Center
Fri 03:02:58 PM 34.6767 -95.0414 222° Southwest 336 387 32,800 -1,920 Descending Fort Worth Center
Fri 03:04:00 PM 34.6075 -95.1139 221° Southwest 334 384 30,700 -1,984 Descending Fort Worth Center
Fri 03:05:02 PM 34.5367 -95.1892 221° Southwest 335 386 28,700 -2,177 Descending Fort Worth Center
Fri 03:06:04 PM 34.4550 -95.2764 221° Southwest 333 383 26,200 -1,694 Descending Fort Worth Center
Fri 03:07:06 PM 34.3869 -95.3481 221° Southwest 328 377 25,200 -968 Descending Fort Worth Center
Fri 03:08:08 PM 34.3111 -95.4297 222° Southwest 352 405 24,200 -581 Descending Fort Worth Center
Fri 03:09:10 PM 34.2281 -95.5167 221° Southwest 387 445 24,000 -97 Descending Fort Worth Center
Fri 03:10:12 PM 34.1372 -95.6125 221° Southwest 388 447 24,000  Level Fort Worth Center
Fri 03:11:14 PM 34.0569 -95.6967 221° Southwest 387 445 24,000  Level Fort Worth Center
Fri 03:12:17 PM 33.9744 -95.7836 221° Southwest 389 448 24,000 -96 Level Fort Worth Center
Fri 03:13:19 PM 33.8736 -95.8867 220° Southwest 394 453 23,800 -1,258 Descending Fort Worth Center
Fri 03:14:21 PM 33.7883 -95.9742 220° Southwest 399 459 21,400 -2,468 Descending Fort Worth Center
Fri 03:15:23 PM 33.7156 -96.0525 222° Southwest 383 441 18,700 -2,758 Descending Fort Worth Center
Fri 03:16:25 PM 33.6267 -96.1428 220° Southwest 366 421 15,700 -2,468 Descending Fort Worth Center
Fri 03:17:27 PM 33.5519 -96.2189 220° Southwest 352 405 13,600 -1,887 Descending Fort Worth Center
Fri 03:18:29 PM 33.4761 -96.3056 224° Southwest 350 403 11,800 -1,258 Descending Fort Worth Center
Fri 03:19:31 PM 33.4144 -96.3814 226° Southwest 319 367 11,000 -629 Descending Fort Worth Center
Fri 03:20:33 PM 33.3583 -96.4478 225° Southwest 271 312 10,500 -756 Descending Fort Worth Center
Fri 03:21:38 PM 33.3333 -96.5333 251° West 261 300 9,400 -960 Descending Dallas / Fort Worth TRACON
Fri 03:22:38 PM 33.3000 -96.6167 244° Southwest 265 305 8,500 -934 Descending Dallas / Fort Worth TRACON
Fri 03:23:40 PM 33.2836 -96.6992 257° West 263 303 7,500 -919 Descending Fort Worth Center
Fri 03:24:42 PM 33.2628 -96.7875 254° West 261 300 6,600 -919 Descending Fort Worth Center
Fri 03:25:44 PM 33.2439 -96.8658 254° West 259 298 5,600 -1,113 Descending Fort Worth Center
Fri 03:26:46 PM 33.2125 -96.9419 244° Southwest 241 277 4,300 -1,065 Descending Fort Worth Center
Fri 03:27:48 PM 33.1742 -97.0061 234° Southwest 238 274 3,400 -726 Descending Fort Worth Center
Fri 03:28:50 PM 33.1244 -97.0586 221° Southwest 237 273 2,800 -218 Descending Fort Worth Center
Fri 03:29:38 PM 33.0833 -97.0500 170° South 226 260 3,000 -59 Climbing Dallas / Fort Worth TRACON
Fri 03:30:32 PM 33.0167 -97.0500 180° South 204 235 2,700 -650 Descending Dallas / Fort Worth TRACON
Fri 03:31:38 PM 32.9667 -97.0500 180° South 143 165 1,700 -810 Descending Dallas / Fort Worth TRACON
Fri 03:32:38 PM 32.9333 -97.0500 180° South 133 153 1,000 -700 Descending Dallas / Fort Worth TRACON

Login

Don't have an account? Register now (free) for customized features, flight alerts, and more!